createdAt,value
2023-06-12T00:00:46.547Z,0.00
2023-06-12T00:01:46.522Z,0.00
2023-06-12T00:02:46.675Z,0.00
2023-06-12T00:03:46.586Z,0.00
2023-06-12T00:04:46.562Z,0.00
2023-06-12T00:05:46.497Z,0.00
2023-06-12T00:06:46.469Z,0.00
2023-06-12T00:07:46.439Z,0.00
2023-06-12T00:08:46.505Z,0.00
2023-06-12T00:09:46.446Z,0.00
2023-06-12T00:10:46.419Z,0.00
2023-06-12T00:11:46.422Z,0.00
2023-06-12T00:12:46.403Z,0.00
2023-06-12T00:13:46.433Z,0.00
2023-06-12T00:14:46.404Z,0.00
2023-06-12T00:15:46.428Z,0.00
2023-06-12T00:16:46.442Z,0.00
2023-06-12T00:17:46.432Z,0.00
2023-06-12T00:18:46.387Z,0.00
2023-06-12T00:19:46.352Z,0.00
2023-06-12T00:20:46.368Z,0.00
2023-06-12T00:21:46.406Z,0.00
2023-06-12T00:22:46.323Z,0.00
2023-06-12T00:23:46.388Z,0.00
2023-06-12T00:24:46.351Z,0.00
2023-06-12T00:25:46.330Z,0.00
2023-06-12T00:26:46.342Z,0.00
2023-06-12T00:27:46.282Z,0.00
2023-06-12T00:28:46.327Z,0.00
2023-06-12T00:29:46.309Z,0.00
2023-06-12T00:30:46.274Z,0.00
2023-06-12T00:31:46.329Z,0.00
2023-06-12T00:32:46.330Z,0.00
2023-06-12T00:33:46.303Z,0.00
2023-06-12T00:34:46.239Z,0.00
2023-06-12T00:35:46.253Z,0.00
2023-06-12T00:36:46.270Z,0.00
2023-06-12T00:37:46.191Z,0.00
2023-06-12T00:38:46.197Z,0.00
2023-06-12T00:39:46.187Z,0.00
2023-06-12T00:40:46.201Z,0.00
2023-06-12T00:41:46.190Z,0.00
2023-06-12T00:42:46.191Z,0.00
2023-06-12T00:43:46.182Z,0.00
2023-06-12T00:44:46.161Z,0.00
2023-06-12T00:45:46.184Z,0.00
2023-06-12T00:46:46.175Z,0.00
2023-06-12T00:47:46.227Z,0.00
2023-06-12T00:48:46.121Z,0.00
2023-06-12T00:49:46.123Z,0.00
2023-06-12T00:51:18.917Z,0.00
2023-06-12T00:52:18.940Z,0.00
2023-06-12T00:52:46.132Z,0.00
2023-06-12T00:53:46.116Z,0.00
2023-06-12T00:54:46.071Z,0.00
2023-06-12T00:55:46.131Z,0.00
2023-06-12T00:56:46.176Z,0.00
2023-06-12T00:57:47.048Z,0.00
2023-06-12T00:58:46.072Z,0.00
2023-06-12T00:59:46.093Z,0.00
2023-06-12T01:00:46.178Z,0.00
2023-06-12T01:01:46.145Z,0.00
2023-06-12T01:02:46.169Z,0.00
2023-06-12T01:03:46.233Z,0.00
2023-06-12T01:04:46.016Z,0.00
2023-06-12T01:05:46.040Z,0.00
2023-06-12T01:06:46.020Z,0.00
2023-06-12T01:07:46.036Z,0.00
2023-06-12T01:08:45.991Z,0.00
2023-06-12T01:09:45.976Z,0.00
2023-06-12T01:10:45.945Z,0.00
2023-06-12T01:11:45.943Z,0.00
2023-06-12T01:12:45.999Z,0.00
2023-06-12T01:13:45.929Z,0.00
2023-06-12T01:14:45.969Z,0.00
2023-06-12T01:15:45.915Z,0.00
2023-06-12T01:16:45.987Z,0.00
2023-06-12T01:17:45.961Z,0.00
2023-06-12T01:18:45.905Z,0.00
2023-06-12T01:19:45.912Z,0.00
2023-06-12T01:20:45.875Z,0.00
2023-06-12T01:21:45.885Z,0.00
2023-06-12T01:22:45.909Z,0.00
2023-06-12T01:23:45.913Z,0.00
2023-06-12T01:24:45.871Z,0.00
2023-06-12T01:25:45.855Z,0.00
2023-06-12T01:26:45.885Z,0.00
2023-06-12T01:27:45.851Z,0.00
2023-06-12T01:28:45.828Z,0.00
2023-06-12T01:29:45.833Z,0.00
2023-06-12T01:30:45.800Z,0.00
2023-06-12T01:31:45.885Z,0.00
2023-06-12T01:32:45.847Z,0.00
2023-06-12T01:33:45.785Z,0.00
2023-06-12T01:34:45.773Z,0.00
2023-06-12T01:35:46.542Z,0.00
2023-06-12T01:36:45.788Z,0.00
2023-06-12T01:37:45.760Z,0.00
2023-06-12T01:38:45.752Z,0.00
2023-06-12T01:39:45.747Z,0.00
2023-06-12T01:40:45.703Z,0.00
2023-06-12T01:41:45.696Z,0.00
2023-06-12T01:42:45.728Z,0.00
2023-06-12T01:43:45.693Z,0.00
2023-06-12T01:44:45.671Z,0.00
2023-06-12T01:45:46.554Z,0.00
2023-06-12T01:46:45.703Z,0.00
2023-06-12T01:47:45.723Z,0.00
2023-06-12T01:48:45.660Z,0.00
2023-06-12T01:49:45.690Z,0.00
2023-06-12T01:50:46.528Z,0.00
2023-06-12T01:51:45.646Z,0.00
2023-06-12T01:52:45.648Z,0.00
2023-06-12T01:53:45.635Z,0.00
2023-06-12T01:54:45.663Z,0.00
2023-06-12T01:55:45.659Z,0.00
2023-06-12T01:56:45.594Z,0.00
2023-06-12T01:57:45.576Z,0.00
2023-06-12T01:58:46.533Z,0.00
2023-06-12T01:59:45.625Z,0.00
2023-06-12T02:00:45.580Z,0.00
2023-06-12T02:01:45.614Z,0.00
2023-06-12T02:02:45.561Z,0.00
2023-06-12T02:03:45.583Z,0.00
2023-06-12T02:04:45.573Z,0.00
2023-06-12T02:05:45.569Z,0.00
2023-06-12T02:06:45.534Z,0.00
2023-06-12T02:07:45.529Z,0.00
2023-06-12T02:08:45.515Z,0.00
2023-06-12T02:09:45.489Z,0.00
2023-06-12T02:10:45.535Z,0.00
2023-06-12T02:11:45.481Z,0.00
2023-06-12T02:12:45.498Z,0.00
2023-06-12T02:13:45.452Z,0.00
2023-06-12T02:14:45.458Z,0.00
2023-06-12T02:15:45.443Z,0.00
2023-06-12T02:16:45.475Z,0.00
2023-06-12T02:17:45.500Z,0.00
2023-06-12T02:18:46.051Z,0.00
2023-06-12T02:19:45.420Z,0.00
2023-06-12T02:20:45.399Z,4.00
2023-06-12T02:21:45.410Z,4.00
2023-06-12T02:22:45.427Z,4.00
2023-06-12T02:23:45.424Z,0.00
2023-06-12T02:24:45.381Z,0.00
2023-06-12T02:25:45.358Z,4.00
2023-06-12T02:26:45.340Z,4.00
2023-06-12T02:27:45.387Z,4.00
2023-06-12T02:28:45.348Z,4.00
2023-06-12T02:29:45.884Z,4.00
2023-06-12T02:30:45.310Z,8.00
2023-06-12T02:31:45.460Z,4.00
2023-06-12T02:32:45.458Z,8.00
2023-06-12T02:33:45.301Z,8.00
2023-06-12T02:34:45.303Z,4.00
2023-06-12T02:35:45.340Z,8.00
2023-06-12T02:36:46.019Z,12.00
2023-06-12T02:37:46.261Z,12.00
2023-06-12T02:38:45.262Z,12.00
2023-06-12T02:39:45.275Z,12.00
2023-06-12T02:40:45.226Z,16.00
2023-06-12T02:41:46.218Z,16.00
2023-06-12T02:42:45.237Z,20.00
2023-06-12T02:43:45.220Z,20.00
2023-06-12T02:44:45.213Z,24.00
2023-06-12T02:45:45.255Z,24.00
2023-06-12T02:46:45.201Z,28.00
2023-06-12T02:47:45.215Z,32.00
2023-06-12T02:48:45.192Z,36.00
2023-06-12T02:49:45.178Z,44.00
2023-06-12T02:50:45.198Z,44.00
2023-06-12T02:51:45.163Z,48.00
2023-06-12T02:52:45.142Z,56.00
2023-06-12T02:53:45.179Z,60.00
2023-06-12T02:54:45.131Z,72.00
2023-06-12T02:55:45.135Z,76.00
2023-06-12T02:56:45.162Z,88.00
2023-06-12T02:57:45.095Z,92.00
2023-06-12T02:58:45.597Z,104.00
2023-06-12T02:59:45.108Z,116.00
2023-06-12T03:00:45.091Z,124.00
2023-06-12T03:01:45.216Z,136.00
2023-06-12T03:02:45.088Z,148.00
2023-06-12T03:03:46.108Z,160.00
2023-06-12T03:04:45.051Z,176.00
2023-06-12T03:05:45.067Z,192.00
2023-06-12T03:06:45.071Z,208.00
2023-06-12T03:07:45.051Z,224.00
2023-06-12T03:08:45.274Z,240.00
2023-06-12T03:09:46.007Z,260.00
2023-06-12T03:10:45.016Z,280.00
2023-06-12T03:11:45.017Z,300.00
2023-06-12T03:12:45.017Z,324.00
2023-06-12T03:13:44.972Z,344.00
2023-06-12T03:14:44.989Z,372.00
2023-06-12T03:15:46.035Z,396.00
2023-06-12T03:16:44.950Z,424.00
2023-06-12T03:17:45.008Z,452.00
2023-06-12T03:18:44.962Z,480.00
2023-06-12T03:19:44.959Z,516.00
2023-06-12T03:20:44.927Z,548.00
2023-06-12T03:21:44.973Z,584.00
2023-06-12T03:22:44.924Z,624.00
2023-06-12T03:23:44.923Z,664.00
2023-06-12T03:24:44.904Z,712.00
2023-06-12T03:25:44.893Z,760.00
2023-06-12T03:26:44.896Z,812.00
2023-06-12T03:27:44.891Z,868.00
2023-06-12T03:28:44.871Z,936.00
2023-06-12T03:29:44.871Z,1016.00
2023-06-12T03:30:44.855Z,1112.00
2023-06-12T03:31:44.857Z,1236.00
2023-06-12T03:32:44.871Z,1420.00
2023-06-12T03:33:44.864Z,1616.00
2023-06-12T03:34:44.860Z,1824.00
2023-06-12T03:35:44.812Z,2124.00
2023-06-12T03:36:44.827Z,2576.00
2023-06-12T03:37:44.789Z,3220.00
2023-06-12T03:38:45.344Z,3608.00
2023-06-12T03:39:44.794Z,3512.00
2023-06-12T03:40:44.779Z,3304.00
2023-06-12T03:41:44.785Z,3212.00
2023-06-12T03:42:44.762Z,3416.00
2023-06-12T03:43:44.779Z,3704.00
2023-06-12T03:44:44.773Z,3824.00
2023-06-12T03:45:44.757Z,3880.00
2023-06-12T03:46:44.809Z,4012.00
2023-06-12T03:47:44.772Z,4112.00
2023-06-12T04:03:44.795Z,7344.00
2023-06-12T04:04:45.210Z,7492.00
2023-06-12T04:05:45.853Z,7812.00
2023-06-12T04:06:45.788Z,8040.00
2023-06-12T04:07:45.789Z,8232.00
2023-06-12T04:08:45.758Z,8864.00
2023-06-12T04:09:45.777Z,9484.00
2023-06-12T04:10:45.790Z,9652.00
2023-06-12T04:11:45.784Z,9164.00
2023-06-12T04:12:45.740Z,9216.00
2023-06-12T04:13:45.729Z,9612.00
2023-06-12T04:15:19.837Z,10068.00
2023-06-12T04:15:45.841Z,10448.00
2023-06-12T04:16:45.735Z,10764.00
2023-06-12T04:17:45.761Z,11072.00
2023-06-12T04:18:45.682Z,11268.00
2023-06-12T04:19:45.688Z,11488.00
2023-06-12T04:20:45.667Z,12000.00
2023-06-12T04:21:45.692Z,12608.00
2023-06-12T04:22:45.696Z,13184.00
2023-06-12T04:23:45.712Z,13120.00
2023-06-12T04:24:45.655Z,13184.00
2023-06-12T04:25:45.699Z,13600.00
2023-06-12T04:26:45.645Z,14176.00
2023-06-12T04:27:49.299Z,14720.00
2023-06-12T04:28:46.949Z,15488.00
2023-06-12T04:29:45.700Z,16128.00
2023-06-12T04:30:45.653Z,16128.00
2023-06-12T04:31:45.897Z,16256.00
2023-06-12T04:32:45.669Z,16448.00
2023-06-12T04:33:45.946Z,16864.00
2023-06-12T04:34:45.627Z,17504.00
2023-06-12T04:35:45.570Z,18336.00
2023-06-12T04:36:45.620Z,19584.00
2023-06-12T04:37:45.576Z,20640.00
2023-06-12T04:38:45.593Z,20864.00
2023-06-12T04:39:46.396Z,21376.00
2023-06-12T04:40:45.549Z,21728.00
2023-06-12T04:41:45.561Z,21120.00
2023-06-12T04:42:45.533Z,19456.00
2023-06-12T04:43:45.602Z,18560.00
2023-06-12T04:44:45.512Z,18144.00
2023-06-12T04:45:45.583Z,18048.00
2023-06-12T04:46:45.482Z,18208.00
2023-06-12T04:47:45.571Z,18272.00
2023-06-12T04:48:45.548Z,18016.00
2023-06-12T04:49:46.438Z,18016.00
2023-06-12T04:50:45.469Z,18016.00
2023-06-12T04:51:45.443Z,18112.00
2023-06-12T04:52:45.442Z,18080.00
2023-06-12T04:53:45.417Z,18144.00
2023-06-12T04:54:45.564Z,18240.00
2023-06-12T04:55:45.476Z,18400.00
2023-06-12T04:56:45.428Z,18560.00
2023-06-12T04:57:46.424Z,18784.00
2023-06-12T04:58:45.441Z,18848.00
2023-06-12T04:59:45.445Z,19648.00
2023-06-12T05:00:45.470Z,22272.00
2023-06-12T05:01:45.404Z,27200.00
2023-06-12T05:02:45.465Z,33824.00
2023-06-12T05:03:45.372Z,38496.00
2023-06-12T05:04:45.362Z,40000.00
2023-06-12T05:05:45.389Z,41088.00
2023-06-12T05:06:45.400Z,42048.00
2023-06-12T05:07:45.331Z,41792.00
2023-06-12T05:08:45.354Z,43072.00
2023-06-12T05:09:45.382Z,42816.00
2023-06-12T05:10:45.320Z,43776.00
2023-06-12T05:11:45.416Z,44864.00
2023-06-12T05:13:18.755Z,44896.00
2023-06-12T05:13:45.857Z,45664.00
2023-06-12T05:14:45.313Z,46688.00
2023-06-12T05:15:45.279Z,47360.00
2023-06-12T05:16:45.314Z,48608.00
2023-06-12T05:17:45.305Z,49664.00
2023-06-12T05:18:45.259Z,50048.00
2023-06-12T05:19:45.262Z,49120.00
2023-06-12T05:20:45.250Z,48672.00
2023-06-12T05:21:45.231Z,50272.00
2023-06-12T05:22:45.224Z,51712.00
2023-06-12T05:23:46.273Z,51616.00
2023-06-12T05:24:45.205Z,52032.00
2023-06-12T05:25:45.216Z,52800.00
2023-06-12T05:26:45.189Z,53760.00
2023-06-12T05:27:45.189Z,54176.00
2023-06-12T05:28:45.197Z,53504.00
2023-06-12T05:29:45.168Z,54944.00
2023-06-12T05:30:45.291Z,55104.00
2023-06-12T05:31:45.140Z,54432.00
2023-06-12T05:32:45.181Z,55328.00
2023-06-12T05:33:45.870Z,55264.00
2023-06-12T05:34:45.133Z,54816.00
2023-06-12T05:35:45.223Z,55200.00
2023-06-12T05:36:45.126Z,57504.00
2023-06-12T05:37:45.111Z,56416.00
2023-06-12T05:38:45.154Z,55584.00
2023-06-12T05:39:45.118Z,56320.00
2023-06-12T05:40:45.079Z,57504.00
2023-06-12T05:41:45.097Z,58144.00
2023-06-12T05:42:45.080Z,58048.00
2023-06-12T05:43:45.087Z,58784.00
2023-06-12T05:44:45.111Z,58144.00
2023-06-12T05:45:45.068Z,58336.00
2023-06-12T05:46:45.114Z,59872.00
2023-06-12T05:47:45.144Z,60800.00
2023-06-12T05:48:45.039Z,61952.00
2023-06-12T05:49:45.058Z,61984.00
2023-06-12T05:50:45.000Z,63488.00
2023-06-12T05:51:45.022Z,64544.00
2023-06-12T05:52:45.046Z,65728.00
2023-06-12T05:53:45.051Z,65632.00
2023-06-12T05:54:45.027Z,65280.00
2023-06-12T05:55:44.994Z,65472.00
2023-06-12T05:56:44.992Z,65408.00
2023-06-12T05:57:45.006Z,64992.00
2023-06-12T05:58:44.979Z,65312.00
2023-06-12T05:59:44.972Z,66112.00
2023-06-12T06:00:44.966Z,65312.00
2023-06-12T06:01:44.963Z,64320.00
2023-06-12T06:02:45.024Z,63232.00
2023-06-12T06:03:45.993Z,65120.00
2023-06-12T06:04:44.915Z,66432.00
2023-06-12T06:05:44.964Z,66112.00
2023-06-12T06:06:44.902Z,67968.00
2023-06-12T06:07:44.914Z,68192.00
2023-06-12T06:08:44.871Z,67392.00
2023-06-12T06:09:44.902Z,67072.00
2023-06-12T06:10:46.024Z,68000.00
2023-06-12T06:11:44.863Z,68416.00
2023-06-12T06:12:44.839Z,67200.00
2023-06-12T06:13:44.846Z,66592.00
2023-06-12T06:14:44.868Z,67200.00
2023-06-12T06:15:44.845Z,67520.00
2023-06-12T06:16:54.156Z,66400.00
2023-06-12T06:17:46.885Z,66528.00
2023-06-12T06:18:44.822Z,67232.00
2023-06-12T06:19:44.839Z,66304.00
2023-06-12T06:20:44.806Z,67104.00
2023-06-12T06:21:44.783Z,67488.00
2023-06-12T06:22:44.780Z,67424.00
2023-06-12T06:23:44.830Z,66880.00
2023-06-12T06:24:44.805Z,66400.00
2023-06-12T06:25:44.803Z,66880.00
2023-06-12T06:26:44.746Z,67168.00
2023-06-12T06:27:44.753Z,68384.00
2023-06-12T06:28:48.676Z,68064.00
2023-06-12T06:29:45.776Z,67520.00
2023-06-12T06:30:44.746Z,67744.00
2023-06-12T06:31:44.762Z,68864.00
2023-06-12T06:32:44.751Z,69120.00
2023-06-12T06:33:44.700Z,68864.00
2023-06-12T06:34:44.696Z,68800.00
2023-06-12T06:35:44.820Z,68800.00
2023-06-12T06:36:44.679Z,68768.00
2023-06-12T06:37:44.683Z,68352.00
2023-06-12T06:38:44.659Z,67936.00
2023-06-12T06:39:44.717Z,67264.00
2023-06-12T06:40:44.661Z,67360.00
2023-06-12T06:41:44.646Z,67616.00
2023-06-12T06:42:44.659Z,67392.00
2023-06-12T06:43:44.677Z,66944.00
2023-06-12T06:44:44.647Z,66208.00
2023-06-12T06:45:44.664Z,65728.00
2023-06-12T06:46:44.704Z,67648.00
2023-06-12T06:47:44.601Z,67552.00
2023-06-12T06:48:44.600Z,67648.00
2023-06-12T06:49:44.632Z,67616.00
2023-06-12T06:50:44.636Z,66944.00
2023-06-12T06:51:44.586Z,67456.00
2023-06-12T06:52:44.591Z,66912.00
2023-06-12T06:53:45.046Z,67616.00
2023-06-12T06:54:44.565Z,68352.00
2023-06-12T06:55:44.550Z,69184.00
2023-06-12T06:56:44.534Z,69952.00
2023-06-12T06:57:44.526Z,70016.00
2023-06-12T06:58:44.527Z,65952.00
2023-06-12T06:59:44.559Z,63872.00
2023-06-12T07:00:44.584Z,66880.00
2023-06-12T07:01:44.595Z,67040.00
2023-06-12T07:02:44.635Z,68000.00
2023-06-12T07:03:45.091Z,68928.00
2023-06-12T07:04:45.371Z,68160.00
2023-06-12T07:05:44.508Z,66848.00
2023-06-12T07:06:44.509Z,66752.00
2023-06-12T07:07:59.663Z,66368.00
2023-06-12T07:08:46.453Z,65632.00
2023-06-12T07:09:45.405Z,64704.00
2023-06-12T07:10:44.447Z,64576.00
2023-06-12T07:11:44.453Z,65184.00
2023-06-12T07:12:44.419Z,65952.00
2023-06-12T07:13:44.980Z,67456.00
2023-06-12T07:14:44.972Z,67776.00
2023-06-12T07:15:44.518Z,67584.00
2023-06-12T07:16:44.425Z,66272.00
2023-06-12T07:17:44.404Z,67744.00
2023-06-12T07:18:44.388Z,68928.00
2023-06-12T07:19:44.399Z,69184.00
2023-06-12T07:20:44.376Z,70336.00
2023-06-12T07:21:44.391Z,69280.00
2023-06-12T07:22:44.372Z,69696.00
2023-06-12T07:23:45.631Z,70272.00
2023-06-12T07:24:45.337Z,70080.00
2023-06-12T07:25:44.362Z,71200.00
2023-06-12T07:26:44.345Z,70752.00
2023-06-12T07:27:44.344Z,71424.00
2023-06-12T07:28:44.338Z,70592.00
2023-06-12T07:29:44.307Z,71584.00
2023-06-12T07:30:44.307Z,71360.00
2023-06-12T07:31:44.586Z,71072.00
2023-06-12T07:32:44.332Z,72256.00
2023-06-12T07:33:44.294Z,71360.00
2023-06-12T07:34:44.272Z,71552.00
2023-06-12T07:35:44.265Z,69856.00
2023-06-12T07:36:44.266Z,70336.00
2023-06-12T07:37:44.285Z,70560.00
2023-06-12T07:38:44.279Z,69952.00
2023-06-12T07:39:44.305Z,70432.00
2023-06-12T07:40:44.270Z,70304.00
2023-06-12T07:41:44.307Z,68800.00
2023-06-12T07:42:44.295Z,67360.00
2023-06-12T07:43:44.240Z,67776.00
2023-06-12T07:44:44.224Z,69056.00
2023-06-12T07:45:44.186Z,68192.00
2023-06-12T07:46:44.955Z,68032.00
2023-06-12T07:47:44.589Z,67296.00
2023-06-12T07:48:44.178Z,68288.00
2023-06-12T07:49:44.180Z,67904.00
2023-06-12T07:50:44.170Z,64960.00
2023-06-12T07:51:45.156Z,65120.00
2023-06-12T07:52:44.166Z,65664.00
2023-06-12T07:53:44.158Z,65344.00
2023-06-12T07:54:44.184Z,51392.00
2023-06-12T07:55:44.141Z,27264.00
2023-06-12T07:56:44.130Z,22208.00
2023-06-12T07:57:44.106Z,21696.00
2023-06-12T07:58:44.104Z,21600.00
2023-06-12T07:59:44.112Z,21984.00
2023-06-12T08:00:44.111Z,22464.00
2023-06-12T08:01:44.152Z,22720.00
2023-06-12T08:02:44.198Z,22336.00
2023-06-12T08:03:45.141Z,22272.00
2023-06-12T08:04:45.030Z,22112.00
2023-06-12T08:05:44.096Z,22016.00
2023-06-12T08:06:44.068Z,22080.00
2023-06-12T08:07:44.037Z,21984.00
2023-06-12T08:08:44.041Z,22208.00
2023-06-12T08:09:44.034Z,22368.00
2023-06-12T08:10:44.055Z,22496.00
2023-06-12T08:11:44.062Z,22528.00
2023-06-12T08:12:44.025Z,23168.00
2023-06-12T08:13:44.010Z,14700.00
2023-06-12T08:14:43.990Z,23168.00
2023-06-12T08:15:43.998Z,23744.00
2023-06-12T08:16:44.084Z,23776.00
2023-06-12T08:17:43.991Z,23456.00
2023-06-12T08:18:43.984Z,23232.00
2023-06-12T08:19:44.014Z,22720.00
2023-06-12T08:20:43.981Z,22208.00
2023-06-12T08:21:43.977Z,22016.00
2023-06-12T08:22:43.986Z,22912.00
2023-06-12T08:23:44.045Z,22272.00
2023-06-12T08:24:43.970Z,12832.00
2023-06-12T08:25:43.940Z,12976.00
2023-06-12T08:26:43.948Z,13852.00
2023-06-12T08:27:43.951Z,21856.00
2023-06-12T08:28:43.909Z,21312.00
2023-06-12T08:29:44.892Z,20480.00
2023-06-12T08:30:43.957Z,20160.00
2023-06-12T08:31:43.908Z,17484.00
2023-06-12T08:32:44.523Z,20064.00
2023-06-12T08:33:44.901Z,19776.00
2023-06-12T08:34:43.889Z,19648.00
2023-06-12T08:35:43.854Z,19808.00
2023-06-12T08:36:43.855Z,19808.00
2023-06-12T08:37:43.857Z,19680.00
2023-06-12T08:38:43.900Z,18912.00
2023-06-12T08:39:43.813Z,19520.00
2023-06-12T08:40:43.853Z,19360.00
2023-06-12T08:41:43.837Z,19328.00
2023-06-12T08:42:43.840Z,19264.00
2023-06-12T08:43:43.803Z,19360.00
2023-06-12T08:44:43.792Z,19328.00
2023-06-12T08:45:43.782Z,19328.00
2023-06-12T08:46:43.810Z,19296.00
2023-06-12T08:47:43.803Z,19104.00
2023-06-12T08:48:43.816Z,19072.00
2023-06-12T08:49:43.760Z,19200.00
2023-06-12T08:50:44.172Z,19136.00
2023-06-12T08:51:44.771Z,18784.00
2023-06-12T08:52:43.751Z,19040.00
2023-06-12T08:53:43.774Z,19264.00
2023-06-12T08:54:43.714Z,19392.00
2023-06-12T08:55:43.714Z,19264.00
2023-06-12T08:56:43.751Z,19328.00
2023-06-12T08:57:43.694Z,19424.00
2023-06-12T08:58:43.722Z,19584.00
2023-06-12T08:59:43.684Z,19808.00
2023-06-12T09:00:43.679Z,19616.00
2023-06-12T09:01:43.842Z,19200.00
2023-06-12T09:02:43.720Z,19040.00
2023-06-12T09:03:43.810Z,19040.00
2023-06-12T09:04:43.726Z,19168.00
2023-06-12T09:05:43.719Z,18368.00
2023-06-12T09:06:43.658Z,18912.00
2023-06-12T09:07:43.636Z,18560.00
2023-06-12T09:08:43.617Z,18368.00
2023-06-12T09:09:43.618Z,18048.00
2023-06-12T09:10:43.637Z,18016.00
2023-06-12T09:11:43.638Z,17760.00
2023-06-12T09:12:43.622Z,17664.00
2023-06-12T09:13:43.618Z,17536.00
2023-06-12T09:14:43.571Z,17568.00
2023-06-12T09:15:43.610Z,17664.00
2023-06-12T09:16:43.598Z,17728.00
2023-06-12T09:17:43.679Z,17536.00
2023-06-12T09:18:43.550Z,17088.00
2023-06-12T09:19:43.525Z,17216.00
2023-06-12T09:20:44.324Z,17056.00
2023-06-12T09:21:44.562Z,17120.00
2023-06-12T09:22:43.521Z,16960.00
2023-06-12T09:23:43.519Z,16960.00
2023-06-12T09:24:43.528Z,16896.00
2023-06-12T09:25:49.927Z,16768.00
2023-06-12T09:26:45.498Z,16736.00
2023-06-12T09:27:43.495Z,16800.00
2023-06-12T09:28:43.458Z,17024.00
2023-06-12T09:29:44.470Z,16864.00
2023-06-12T09:30:43.458Z,10900.00
2023-06-12T09:31:43.497Z,11040.00
2023-06-12T09:32:43.552Z,13584.00
2023-06-12T09:33:43.433Z,16416.00
2023-06-12T09:34:43.436Z,16164.00
2023-06-12T09:35:43.417Z,16132.00
2023-06-12T09:36:43.456Z,15988.00
2023-06-12T09:37:43.430Z,15820.00
2023-06-12T09:38:43.426Z,15308.00
2023-06-12T09:39:43.433Z,15748.00
2023-06-12T09:40:43.413Z,15568.00
2023-06-12T09:41:43.388Z,15756.00
2023-06-12T09:42:43.402Z,15596.00
2023-06-12T09:43:43.408Z,15492.00
2023-06-12T09:44:43.361Z,15332.00
2023-06-12T09:45:43.372Z,15200.00
2023-06-12T09:46:43.463Z,15060.00
2023-06-12T09:47:43.418Z,14984.00
2023-06-12T09:48:43.391Z,14904.00
2023-06-12T09:49:43.364Z,14780.00
2023-06-12T09:50:43.312Z,14920.00
2023-06-12T09:51:43.319Z,14492.00
2023-06-12T09:52:43.328Z,14424.00
2023-06-12T09:53:43.326Z,14448.00
2023-06-12T09:54:43.313Z,14316.00
2023-06-12T09:55:43.263Z,14140.00
2023-06-12T09:56:43.281Z,13988.00
2023-06-12T09:57:43.295Z,13824.00
2023-06-12T09:58:43.271Z,12200.00
2023-06-12T09:59:43.294Z,11032.00
2023-06-12T10:00:43.249Z,9424.00
2023-06-12T10:01:43.287Z,13608.00
2023-06-12T10:02:43.263Z,13484.00
2023-06-12T10:03:43.235Z,13560.00
2023-06-12T10:04:43.245Z,13456.00
2023-06-12T10:05:43.294Z,13324.00
2023-06-12T10:06:43.194Z,13184.00
2023-06-12T10:07:43.225Z,13152.00
2023-06-12T10:08:43.255Z,13024.00
2023-06-12T10:09:43.174Z,13128.00
2023-06-12T10:10:43.179Z,12960.00
2023-06-12T10:11:43.217Z,12848.00
2023-06-12T10:12:43.164Z,12852.00
2023-06-12T10:13:43.215Z,12660.00
2023-06-12T10:14:43.183Z,12580.00
2023-06-12T10:15:43.175Z,12328.00
2023-06-12T10:16:43.150Z,12492.00
2023-06-12T10:17:43.138Z,12456.00
2023-06-12T10:18:43.160Z,12424.00
2023-06-12T10:19:43.118Z,12336.00
2023-06-12T10:20:43.140Z,12220.00
2023-06-12T10:21:43.140Z,12144.00
2023-06-12T10:22:43.122Z,12016.00
2023-06-12T10:23:43.249Z,11968.00
2023-06-12T10:24:43.096Z,11904.00
2023-06-12T10:25:43.096Z,11792.00
2023-06-12T10:26:43.119Z,11800.00
2023-06-12T10:27:43.075Z,11716.00
2023-06-12T10:28:43.092Z,11624.00
2023-06-12T10:29:43.066Z,11560.00
2023-06-12T10:30:43.614Z,11496.00
2023-06-12T10:31:43.184Z,11520.00
2023-06-12T10:32:43.102Z,11512.00
2023-06-12T10:33:43.036Z,11428.00
2023-06-12T10:34:43.150Z,11560.00
2023-06-12T10:35:43.061Z,11352.00
2023-06-12T10:36:43.090Z,11304.00
2023-06-12T10:37:43.202Z,11260.00
2023-06-12T10:38:43.024Z,11140.00
2023-06-12T10:39:43.007Z,11060.00
2023-06-12T10:40:49.674Z,11076.00
2023-06-12T10:41:44.948Z,11020.00
2023-06-12T10:42:42.978Z,11000.00
2023-06-12T10:43:55.520Z,10940.00
2023-06-12T10:44:44.942Z,10924.00
2023-06-12T10:45:43.091Z,10760.00
2023-06-12T10:46:42.929Z,10872.00
2023-06-12T10:47:42.978Z,10856.00
2023-06-12T10:48:42.897Z,10700.00
2023-06-12T10:49:42.948Z,10724.00
2023-06-12T10:50:42.908Z,10856.00
2023-06-12T10:51:42.889Z,10636.00
2023-06-12T10:52:42.889Z,10624.00
2023-06-12T10:53:42.874Z,10592.00
2023-06-12T10:54:42.889Z,10572.00
2023-06-12T10:55:43.037Z,10728.00
2023-06-12T10:56:42.907Z,10460.00
2023-06-12T10:57:42.846Z,10476.00
2023-06-12T10:58:42.853Z,10440.00
2023-06-12T10:59:42.873Z,10360.00
2023-06-12T11:00:42.944Z,10316.00
2023-06-12T11:02:37.598Z,10288.00
2023-06-12T11:02:42.942Z,10240.00
2023-06-12T11:03:43.016Z,10256.00
2023-06-12T11:04:42.991Z,10176.00
2023-06-12T11:05:42.885Z,10160.00
2023-06-12T11:06:42.803Z,10096.00
2023-06-12T11:07:42.816Z,10036.00
2023-06-12T11:08:42.889Z,10020.00
2023-06-12T11:09:42.771Z,9964.00
2023-06-12T11:10:42.776Z,9920.00
2023-06-12T11:11:42.744Z,9884.00
2023-06-12T11:13:44.725Z,9920.00
2023-06-12T11:14:42.742Z,9896.00
2023-06-12T11:15:42.830Z,9920.00
2023-06-12T11:16:42.753Z,9976.00
2023-06-12T11:17:42.732Z,9844.00
2023-06-12T11:18:42.692Z,9920.00
2023-06-12T11:19:42.695Z,9936.00
2023-06-12T11:20:42.694Z,9972.00
2023-06-12T11:21:42.717Z,9876.00
2023-06-12T11:22:42.669Z,9892.00
2023-06-12T11:23:42.775Z,9852.00
2023-06-12T11:24:42.755Z,9988.00
2023-06-12T11:25:42.771Z,9896.00
2023-06-12T11:26:42.659Z,9916.00
2023-06-12T11:27:42.670Z,9852.00
2023-06-12T11:28:42.666Z,9732.00
2023-06-12T11:29:56.606Z,9804.00
2023-06-12T11:30:57.966Z,9808.00
2023-06-12T11:31:44.674Z,9768.00
2023-06-12T11:32:42.628Z,9736.00
2023-06-12T11:33:42.803Z,9764.00
2023-06-12T11:34:42.597Z,9644.00
2023-06-12T11:35:42.595Z,9664.00
2023-06-12T11:36:42.599Z,7624.00
2023-06-12T11:40:43.582Z,9776.00
2023-06-12T11:41:42.565Z,9844.00
2023-06-12T11:42:42.618Z,9800.00
2023-06-12T11:43:42.560Z,9728.00
2023-06-12T11:44:42.550Z,9768.00
2023-06-12T11:45:42.648Z,9792.00
2023-06-12T11:46:42.530Z,9616.00
2023-06-12T11:49:43.603Z,9672.00
2023-06-12T11:50:42.491Z,9684.00
2023-06-12T11:51:42.468Z,9612.00
2023-06-12T11:52:42.464Z,9640.00
2023-06-12T11:53:42.475Z,9636.00
2023-06-12T11:57:43.454Z,9520.00
2023-06-12T11:58:42.449Z,9480.00
2023-06-12T11:59:42.425Z,9508.00
2023-06-12T12:00:43.007Z,9444.00
2023-06-12T12:01:42.470Z,9408.00
2023-06-12T12:02:43.281Z,9500.00
2023-06-12T12:03:42.450Z,9364.00
2023-06-12T12:04:42.459Z,9368.00
2023-06-12T12:05:42.430Z,9332.00
2023-06-12T12:06:42.368Z,9228.00
2023-06-12T12:07:42.371Z,9248.00
2023-06-12T12:08:42.537Z,9216.00
2023-06-12T12:09:42.379Z,9312.00
2023-06-12T12:10:42.386Z,9240.00
2023-06-12T12:11:42.347Z,9332.00
2023-06-12T12:12:42.355Z,9184.00
2023-06-12T12:13:42.392Z,9288.00
2023-06-12T12:14:43.160Z,9172.00
2023-06-12T12:15:43.182Z,9180.00
2023-06-12T12:16:42.337Z,9152.00
2023-06-12T12:17:42.383Z,9176.00
2023-06-12T12:18:42.280Z,9216.00
2023-06-12T12:19:42.318Z,9188.00
2023-06-12T12:20:42.316Z,9124.00
2023-06-12T12:21:42.273Z,9180.00
2023-06-12T12:22:42.277Z,9156.00
2023-06-12T12:23:42.388Z,9144.00
2023-06-12T12:24:42.236Z,9120.00
2023-06-12T12:25:42.292Z,9064.00
2023-06-12T12:26:42.254Z,9144.00
2023-06-12T12:27:43.219Z,9092.00
2023-06-12T12:28:42.207Z,9064.00
2023-06-12T12:29:58.821Z,9036.00
2023-06-12T12:30:44.234Z,9016.00
2023-06-12T12:31:44.457Z,9040.00
2023-06-12T12:32:43.259Z,9032.00
2023-06-12T12:33:42.191Z,9088.00